createdAt,value
2017-07-11T00:00:47.546Z,78.44
2017-07-11T00:01:43.806Z,78.50
2017-07-11T00:02:40.059Z,78.53
2017-07-11T00:03:36.303Z,78.52
2017-07-11T00:04:32.547Z,78.51
2017-07-11T00:05:28.801Z,78.46
2017-07-11T00:06:25.051Z,78.41
2017-07-11T00:07:21.299Z,78.38
2017-07-11T00:08:17.543Z,78.33
2017-07-11T00:09:13.787Z,78.28
2017-07-11T00:10:10.034Z,78.22
2017-07-11T00:11:06.269Z,78.21
2017-07-11T00:12:02.530Z,78.22
2017-07-11T00:12:58.775Z,78.23
2017-07-11T00:13:55.011Z,78.26
2017-07-11T00:14:51.251Z,78.33
2017-07-11T00:15:47.504Z,78.36
2017-07-11T00:16:43.759Z,78.42
2017-07-11T00:17:40.002Z,78.36
2017-07-11T00:18:36.246Z,78.31
2017-07-11T00:19:32.503Z,78.33
2017-07-11T00:20:28.755Z,78.34
2017-07-11T00:21:25.002Z,78.33
2017-07-11T00:22:21.263Z,78.37
2017-07-11T00:23:17.552Z,78.33
2017-07-11T00:24:13.774Z,78.36
2017-07-11T00:25:10.019Z,78.36
2017-07-11T00:26:06.266Z,78.40
2017-07-11T00:27:02.522Z,78.44
2017-07-11T00:27:58.780Z,78.40
2017-07-11T00:28:55.022Z,78.42
2017-07-11T00:29:51.263Z,78.50
2017-07-11T00:30:47.508Z,78.51
2017-07-11T00:31:43.763Z,78.47
2017-07-11T00:32:39.995Z,78.39
2017-07-11T00:33:36.255Z,78.36
2017-07-11T00:34:32.508Z,78.28
2017-07-11T00:35:28.754Z,78.23
2017-07-11T00:36:24.995Z,78.21
2017-07-11T00:37:21.239Z,78.22
2017-07-11T00:38:17.506Z,78.20
2017-07-11T00:39:13.767Z,78.13
2017-07-11T00:40:10.018Z,78.06
2017-07-11T00:41:06.287Z,78.02
2017-07-11T00:42:02.588Z,77.95
2017-07-11T00:42:58.845Z,78.05
2017-07-11T00:43:55.142Z,77.94
2017-07-11T00:44:51.383Z,77.92
2017-07-11T00:45:47.639Z,77.88
2017-07-11T00:46:43.896Z,77.82
2017-07-11T00:47:40.138Z,77.91
2017-07-11T00:48:36.399Z,77.85
2017-07-11T00:49:32.655Z,77.87
2017-07-11T00:50:28.910Z,77.88
2017-07-11T00:51:25.163Z,77.96
2017-07-11T00:52:21.408Z,77.96
2017-07-11T00:53:17.680Z,78.03
2017-07-11T00:54:13.946Z,78.03
2017-07-11T00:55:10.183Z,78.03
2017-07-11T00:56:06.426Z,78.09
2017-07-11T00:57:02.659Z,78.10
2017-07-11T00:57:58.910Z,78.12
2017-07-11T00:58:55.156Z,78.27
2017-07-11T00:59:51.421Z,78.24
2017-07-11T01:00:47.659Z,78.32
2017-07-11T01:01:43.911Z,78.34
2017-07-11T01:02:40.160Z,78.38
2017-07-11T01:03:36.418Z,78.38
2017-07-11T01:04:32.679Z,78.37
2017-07-11T01:05:28.947Z,78.34
2017-07-11T01:06:25.184Z,78.35
2017-07-11T01:07:21.427Z,78.33
2017-07-11T01:08:17.672Z,78.40
2017-07-11T01:09:13.947Z,78.48
2017-07-11T01:10:10.214Z,78.54
2017-07-11T01:11:06.462Z,78.58
2017-07-11T01:12:02.703Z,78.59
2017-07-11T01:12:58.952Z,78.61
2017-07-11T01:13:55.190Z,78.65
2017-07-11T01:14:51.428Z,78.66
2017-07-11T01:15:47.688Z,78.66
2017-07-11T01:16:43.928Z,78.67
2017-07-11T01:17:40.179Z,78.66
2017-07-11T01:18:36.423Z,78.70
2017-07-11T01:19:32.663Z,78.74
2017-07-11T01:20:28.907Z,78.77
2017-07-11T01:21:25.160Z,78.76
2017-07-11T01:22:21.422Z,78.80
2017-07-11T01:23:17.661Z,78.83
2017-07-11T01:24:13.916Z,78.83
2017-07-11T01:25:10.154Z,78.81
2017-07-11T01:26:06.415Z,78.83
2017-07-11T01:27:02.646Z,78.80
2017-07-11T01:27:58.891Z,78.82
2017-07-11T01:28:55.131Z,78.82
2017-07-11T01:29:51.374Z,78.81
2017-07-11T01:30:47.619Z,78.84
2017-07-11T01:31:43.882Z,78.86
2017-07-11T01:32:40.131Z,78.84
2017-07-11T01:33:36.374Z,78.84
2017-07-11T01:34:32.623Z,78.82
2017-07-11T01:35:28.874Z,78.86
2017-07-11T01:36:25.121Z,78.86
2017-07-11T01:37:21.371Z,78.87
2017-07-11T01:38:17.610Z,78.97
2017-07-11T01:39:13.862Z,79.06
2017-07-11T01:40:10.099Z,79.12
2017-07-11T01:41:06.351Z,79.17
2017-07-11T01:42:02.617Z,79.22
2017-07-11T01:42:58.862Z,79.26
2017-07-11T01:43:55.100Z,79.23
2017-07-11T01:44:51.359Z,79.29
2017-07-11T01:45:47.591Z,79.29
2017-07-11T01:46:43.846Z,79.33
2017-07-11T01:47:40.079Z,79.40
2017-07-11T01:48:36.314Z,79.45
2017-07-11T01:49:32.570Z,79.40
2017-07-11T01:50:28.812Z,79.39
2017-07-11T01:51:25.051Z,79.41
2017-07-11T01:52:21.343Z,79.42
2017-07-11T01:53:17.584Z,79.44
2017-07-11T01:54:13.863Z,79.44
2017-07-11T01:55:10.095Z,79.52
2017-07-11T01:56:06.319Z,79.56
2017-07-11T01:57:02.603Z,79.56
2017-07-11T01:57:58.856Z,79.59
2017-07-11T01:58:55.099Z,79.56
2017-07-11T01:59:51.335Z,79.58
2017-07-11T02:00:47.602Z,79.70
2017-07-11T02:01:43.830Z,79.60
2017-07-11T02:02:40.091Z,79.55
2017-07-11T02:03:36.328Z,79.54
2017-07-11T02:04:32.579Z,79.53
2017-07-11T02:05:28.823Z,79.53
2017-07-11T02:06:25.062Z,79.49
2017-07-11T02:07:21.315Z,79.41
2017-07-11T02:08:17.547Z,79.46
2017-07-11T02:09:13.842Z,79.45
2017-07-11T02:10:10.123Z,79.46
2017-07-11T02:11:06.368Z,79.48
2017-07-11T02:12:02.608Z,79.47
2017-07-11T02:12:58.872Z,79.43
2017-07-11T02:13:55.111Z,79.53
2017-07-11T02:14:51.355Z,79.50
2017-07-11T02:15:47.606Z,79.51
2017-07-11T02:16:43.851Z,79.51
2017-07-11T02:17:40.103Z,79.55
2017-07-11T02:18:36.355Z,79.57
2017-07-11T02:19:32.599Z,79.54
2017-07-11T02:20:28.843Z,79.55
2017-07-11T02:21:25.090Z,79.53
2017-07-11T02:22:21.334Z,79.56
2017-07-11T02:23:17.595Z,79.51
2017-07-11T02:24:13.838Z,79.45
2017-07-11T02:25:10.067Z,79.52
2017-07-11T02:26:06.303Z,79.44
2017-07-11T02:27:02.547Z,79.36
2017-07-11T02:27:58.796Z,79.40
2017-07-11T02:28:55.043Z,79.42
2017-07-11T02:29:51.279Z,79.36
2017-07-11T02:30:47.522Z,79.34
2017-07-11T02:31:43.759Z,79.33
2017-07-11T02:32:39.996Z,79.27
2017-07-11T02:33:36.246Z,79.24
2017-07-11T02:34:32.498Z,79.16
2017-07-11T02:35:28.734Z,79.09
2017-07-11T02:36:24.974Z,79.00
2017-07-11T02:37:21.217Z,79.00
2017-07-11T02:38:17.454Z,78.91
2017-07-11T02:39:13.710Z,78.83
2017-07-11T02:40:09.947Z,78.76
2017-07-11T02:41:06.206Z,78.72
2017-07-11T02:42:02.447Z,78.69
2017-07-11T02:42:58.690Z,78.74
2017-07-11T02:43:54.963Z,78.71
2017-07-11T02:44:51.203Z,78.70
2017-07-11T02:45:47.455Z,78.63
2017-07-11T02:46:43.696Z,78.61
2017-07-11T02:47:39.934Z,78.57
2017-07-11T02:48:36.167Z,78.51
2017-07-11T02:49:32.427Z,78.49
2017-07-11T02:50:28.676Z,78.47
2017-07-11T02:51:24.912Z,78.43
2017-07-11T02:52:21.144Z,78.42
2017-07-11T02:53:17.379Z,78.49
2017-07-11T02:54:13.639Z,78.46
2017-07-11T02:55:09.871Z,78.50
2017-07-11T02:56:06.133Z,78.54
2017-07-11T02:57:02.379Z,78.66
2017-07-11T02:57:58.624Z,78.68
2017-07-11T02:58:54.851Z,78.71
2017-07-11T02:59:51.103Z,78.77
2017-07-11T03:00:47.334Z,78.76
2017-07-11T03:01:43.574Z,78.82
2017-07-11T03:02:39.823Z,78.89
2017-07-11T03:03:36.058Z,78.90
2017-07-11T03:04:32.300Z,78.91
2017-07-11T03:05:28.555Z,78.92
2017-07-11T03:06:24.810Z,78.92
2017-07-11T03:07:21.038Z,78.90
2017-07-11T03:08:17.274Z,78.92
2017-07-11T03:09:13.515Z,78.94
2017-07-11T03:10:09.747Z,78.98
2017-07-11T03:11:05.991Z,79.02
2017-07-11T03:12:02.238Z,79.04
2017-07-11T03:12:58.486Z,79.09
2017-07-11T03:13:54.739Z,79.14
2017-07-11T03:14:50.986Z,79.20
2017-07-11T03:15:47.242Z,79.21
2017-07-11T03:16:43.484Z,79.21
2017-07-11T03:17:39.715Z,79.17
2017-07-11T03:18:35.951Z,79.21
2017-07-11T03:19:32.178Z,79.27
2017-07-11T03:20:28.415Z,79.28
2017-07-11T03:21:24.675Z,79.33
2017-07-11T03:22:20.910Z,79.37
2017-07-11T03:23:17.150Z,79.40
2017-07-11T03:24:13.392Z,79.49
2017-07-11T03:25:09.639Z,79.46
2017-07-11T03:26:05.897Z,79.53
2017-07-11T03:27:02.123Z,79.58
2017-07-11T03:27:58.368Z,79.67
2017-07-11T03:28:54.607Z,79.68
2017-07-11T03:29:50.846Z,79.68
2017-07-11T03:30:47.078Z,79.74
2017-07-11T03:31:43.338Z,79.83
2017-07-11T03:32:39.579Z,79.94
2017-07-11T03:33:35.827Z,80.00
2017-07-11T03:34:32.063Z,80.08
2017-07-11T03:35:28.302Z,80.20
2017-07-11T03:36:24.551Z,80.22
2017-07-11T03:37:20.795Z,80.24
2017-07-11T03:38:17.034Z,80.23
2017-07-11T03:39:13.275Z,80.24
2017-07-11T03:40:09.520Z,80.29
2017-07-11T03:41:05.787Z,80.30
2017-07-11T03:42:02.051Z,80.34
2017-07-11T03:42:58.291Z,80.41
2017-07-11T03:43:54.523Z,80.38
2017-07-11T03:44:50.766Z,80.40
2017-07-11T03:45:47.006Z,80.36
2017-07-11T03:46:43.251Z,80.34
2017-07-11T03:47:39.525Z,80.35
2017-07-11T03:48:35.763Z,80.37
2017-07-11T03:49:32.007Z,80.35
2017-07-11T03:50:28.250Z,80.40
2017-07-11T03:51:24.498Z,80.42
2017-07-11T03:52:20.760Z,80.39
2017-07-11T03:53:17.044Z,80.50
2017-07-11T03:54:13.278Z,80.48
2017-07-11T03:55:09.515Z,80.49
2017-07-11T03:56:05.763Z,80.49
2017-07-11T03:57:02.027Z,80.47
2017-07-11T03:57:58.299Z,80.47
2017-07-11T03:58:54.547Z,80.50
2017-07-11T03:59:50.786Z,80.48
2017-07-11T04:00:47.034Z,80.47
2017-07-11T04:01:43.279Z,80.48
2017-07-11T04:02:39.543Z,80.45
2017-07-11T04:03:35.781Z,80.42
2017-07-11T04:04:32.020Z,80.44
2017-07-11T04:05:28.254Z,80.47
2017-07-11T04:06:24.495Z,80.47
2017-07-11T04:07:20.734Z,80.48
2017-07-11T04:08:16.990Z,80.54
2017-07-11T04:09:13.223Z,80.55
2017-07-11T04:10:09.458Z,80.51
2017-07-11T04:11:05.691Z,80.54
2017-07-11T04:12:01.929Z,80.54
2017-07-11T04:12:58.191Z,80.61
2017-07-11T04:13:54.430Z,80.60
2017-07-11T04:14:50.658Z,80.61
2017-07-11T04:15:46.894Z,80.60
2017-07-11T04:16:43.143Z,80.59
2017-07-11T04:17:39.377Z,80.65
2017-07-11T04:18:35.653Z,80.74
2017-07-11T04:19:31.903Z,79.95
2017-07-11T04:20:28.142Z,78.96
2017-07-11T04:21:24.382Z,78.22
2017-07-11T04:22:20.618Z,77.61
2017-07-11T04:23:16.862Z,77.19
2017-07-11T04:24:13.117Z,76.76
2017-07-11T04:25:09.355Z,76.39
2017-07-11T04:26:06.967Z,76.06
2017-07-11T04:27:03.266Z,75.78
2017-07-11T04:27:59.543Z,75.58
2017-07-11T04:28:55.831Z,75.40
2017-07-11T04:29:52.131Z,75.29
2017-07-11T04:30:48.422Z,75.16
2017-07-11T04:31:44.663Z,74.97
2017-07-11T04:32:40.907Z,74.85
2017-07-11T04:33:37.161Z,74.77
2017-07-11T04:34:33.406Z,74.58
2017-07-11T04:35:29.663Z,74.34
2017-07-11T04:36:25.960Z,74.19
2017-07-11T04:37:22.208Z,74.04
2017-07-11T04:38:18.455Z,73.93
2017-07-11T04:39:14.694Z,73.84
2017-07-11T04:40:10.954Z,73.83
2017-07-11T04:41:07.191Z,73.75
2017-07-11T04:42:03.435Z,73.60
2017-07-11T04:42:59.671Z,73.55
2017-07-11T04:43:55.906Z,73.42
2017-07-11T04:44:52.151Z,73.37
2017-07-11T04:45:48.419Z,73.38
2017-07-11T04:46:44.658Z,73.38
2017-07-11T04:47:40.904Z,73.39
2017-07-11T04:48:37.134Z,73.33
2017-07-11T04:49:33.369Z,73.30
2017-07-11T04:50:29.618Z,73.43
2017-07-11T04:51:25.860Z,73.44
2017-07-11T04:52:22.111Z,73.40
2017-07-11T04:53:18.367Z,73.42
2017-07-11T04:54:14.619Z,73.40
2017-07-11T04:55:10.863Z,73.32
2017-07-11T04:56:07.143Z,73.30
2017-07-11T04:57:03.402Z,73.25
2017-07-11T04:57:59.639Z,73.30
2017-07-11T04:58:55.874Z,73.28
2017-07-11T04:59:52.115Z,73.26
2017-07-11T05:00:48.358Z,73.21
2017-07-11T05:01:44.611Z,73.25
2017-07-11T05:02:40.863Z,73.24
2017-07-11T05:03:37.116Z,73.30
2017-07-11T05:04:33.357Z,73.34
2017-07-11T05:05:29.591Z,73.32
2017-07-11T05:06:25.862Z,73.23
2017-07-11T05:07:22.100Z,73.28
2017-07-11T05:08:18.338Z,73.34
2017-07-11T05:09:14.578Z,73.35
2017-07-11T05:10:10.869Z,73.39
2017-07-11T05:11:07.078Z,73.38
2017-07-11T05:12:03.334Z,73.41
2017-07-11T05:12:59.574Z,73.51
2017-07-11T05:13:55.811Z,73.50
2017-07-11T05:14:52.051Z,73.56
2017-07-11T05:15:48.292Z,73.64
2017-07-11T05:16:44.551Z,73.67
2017-07-11T05:17:40.787Z,73.71
2017-07-11T05:18:37.025Z,73.69
2017-07-11T05:19:33.285Z,73.75
2017-07-11T05:20:29.522Z,73.81
2017-07-11T05:21:25.763Z,73.84
2017-07-11T05:22:22.013Z,73.90
2017-07-11T05:23:18.237Z,73.86
2017-07-11T05:24:14.474Z,73.88
2017-07-11T05:25:10.717Z,73.89
2017-07-11T05:26:06.956Z,73.91
2017-07-11T05:27:03.205Z,74.01
2017-07-11T05:27:59.443Z,74.14
2017-07-11T05:28:55.671Z,74.11
2017-07-11T05:29:51.918Z,74.11
2017-07-11T05:30:48.151Z,74.11
2017-07-11T05:31:44.398Z,74.16
2017-07-11T05:32:40.648Z,74.21
2017-07-11T05:33:36.883Z,74.30
2017-07-11T05:34:33.131Z,74.34
2017-07-11T05:35:29.387Z,74.37
2017-07-11T05:36:25.670Z,74.49
2017-07-11T05:37:21.915Z,74.62
2017-07-11T05:38:18.184Z,74.56
2017-07-11T05:39:14.431Z,74.56
2017-07-11T05:40:10.683Z,74.57
2017-07-11T05:41:06.926Z,74.59
2017-07-11T05:42:03.174Z,74.61
2017-07-11T05:42:59.435Z,74.69
2017-07-11T05:43:55.682Z,74.77
2017-07-11T05:44:51.927Z,74.71
2017-07-11T05:45:48.174Z,74.67
2017-07-11T05:46:44.435Z,74.70
2017-07-11T05:47:40.698Z,74.71
2017-07-11T05:48:36.951Z,74.69
2017-07-11T05:49:33.202Z,74.65
2017-07-11T05:50:29.450Z,74.65
2017-07-11T05:51:25.707Z,74.64
2017-07-11T05:52:21.963Z,74.73
2017-07-11T05:53:18.217Z,74.76
2017-07-11T05:54:14.484Z,74.83
2017-07-11T05:55:10.722Z,74.82
2017-07-11T05:56:06.970Z,74.75
2017-07-11T05:57:03.340Z,74.63
2017-07-11T05:57:59.591Z,74.59
2017-07-11T05:58:55.867Z,74.50
2017-07-11T05:59:52.131Z,74.41
2017-07-11T06:00:48.382Z,74.41
2017-07-11T06:01:44.661Z,74.41
2017-07-11T06:02:40.914Z,74.37
2017-07-11T06:03:37.157Z,74.33
2017-07-11T06:04:33.425Z,74.37
2017-07-11T06:05:29.685Z,74.42
2017-07-11T06:06:25.943Z,74.38
2017-07-11T06:07:22.203Z,74.41
2017-07-11T06:08:18.451Z,74.40
2017-07-11T06:09:14.695Z,74.37
2017-07-11T06:10:10.973Z,74.43
2017-07-11T06:11:07.243Z,74.52
2017-07-11T06:12:03.479Z,74.52
2017-07-11T06:12:59.722Z,74.51
2017-07-11T06:13:55.976Z,74.49
2017-07-11T06:14:52.211Z,74.51
2017-07-11T06:15:48.474Z,74.41
2017-07-11T06:16:44.710Z,74.40
2017-07-11T06:17:40.955Z,74.40
2017-07-11T06:18:37.270Z,74.34
2017-07-11T06:19:33.527Z,74.27
2017-07-11T06:20:29.874Z,74.17
2017-07-11T06:21:26.115Z,74.15
2017-07-11T06:22:22.363Z,74.09
2017-07-11T06:23:18.622Z,74.05
2017-07-11T06:24:14.863Z,74.06
2017-07-11T06:25:11.127Z,74.13
2017-07-11T06:26:07.402Z,74.14
2017-07-11T06:27:03.654Z,74.03
2017-07-11T06:27:59.899Z,73.93
2017-07-11T06:28:56.158Z,73.98
2017-07-11T06:29:52.394Z,74.02
2017-07-11T06:30:48.659Z,74.00
2017-07-11T06:31:44.919Z,73.86
2017-07-11T06:32:41.171Z,73.86
2017-07-11T06:33:37.411Z,73.91
2017-07-11T06:34:33.654Z,73.80
2017-07-11T06:35:29.893Z,73.63
2017-07-11T06:36:26.231Z,73.57
2017-07-11T06:37:22.487Z,73.48
2017-07-11T06:38:18.726Z,73.34
2017-07-11T06:39:14.971Z,73.14
2017-07-11T06:40:11.216Z,72.96
2017-07-11T06:41:07.475Z,72.81
2017-07-11T06:42:03.752Z,72.66
2017-07-11T06:43:00.023Z,72.48
2017-07-11T06:43:56.275Z,72.29
2017-07-11T06:44:52.519Z,72.33
2017-07-11T06:45:48.771Z,72.19
2017-07-11T06:46:45.064Z,72.13
2017-07-11T06:47:41.322Z,72.04
2017-07-11T06:48:37.568Z,71.88
2017-07-11T06:49:33.811Z,71.65
2017-07-11T06:50:30.058Z,71.51
2017-07-11T06:51:26.305Z,71.33
2017-07-11T06:52:22.572Z,71.23
2017-07-11T06:53:18.825Z,71.04
2017-07-11T06:54:15.119Z,70.79
2017-07-11T06:55:11.359Z,70.71
2017-07-11T06:56:07.619Z,70.70
2017-07-11T06:57:03.895Z,70.56
2017-07-11T06:58:00.154Z,70.46
2017-07-11T06:58:56.392Z,70.29
2017-07-11T06:59:52.643Z,70.28
2017-07-11T07:00:48.915Z,70.25
2017-07-11T07:01:45.464Z,70.08
2017-07-11T07:02:41.735Z,70.04
2017-07-11T07:03:37.983Z,70.06
2017-07-11T07:04:34.228Z,69.95
2017-07-11T07:05:30.475Z,69.76
2017-07-11T07:06:26.734Z,69.36
2017-07-11T07:07:23.012Z,69.16
2017-07-11T07:08:19.251Z,69.01
2017-07-11T07:09:15.490Z,68.82
2017-07-11T07:10:11.739Z,68.31
2017-07-11T07:11:08.034Z,68.27
2017-07-11T07:12:04.287Z,68.35
2017-07-11T07:13:01.726Z,67.84
2017-07-11T07:13:57.967Z,67.90
2017-07-11T07:14:54.227Z,67.88
2017-07-11T07:15:50.475Z,67.49
2017-07-11T07:16:46.752Z,67.29
2017-07-11T07:17:43.002Z,66.90
2017-07-11T07:18:39.259Z,66.58
2017-07-11T07:19:35.503Z,66.45
2017-07-11T07:20:31.782Z,66.50
2017-07-11T07:21:28.026Z,66.45
2017-07-11T07:22:24.257Z,66.46
2017-07-11T07:23:20.538Z,66.59
2017-07-11T07:24:16.786Z,66.36
2017-07-11T07:25:13.038Z,66.19
2017-07-11T07:26:09.280Z,65.76
2017-07-11T07:27:05.535Z,65.37
2017-07-11T07:28:01.766Z,65.09
2017-07-11T07:28:58.031Z,64.89
2017-07-11T07:29:54.278Z,64.98
2017-07-11T07:30:50.540Z,64.61
2017-07-11T07:31:46.787Z,64.55
2017-07-11T07:32:43.020Z,64.66
2017-07-11T07:33:39.275Z,64.79
2017-07-11T07:34:35.514Z,64.24
2017-07-11T07:35:31.754Z,64.43
2017-07-11T07:36:28.006Z,64.35
2017-07-11T07:37:24.247Z,64.54
2017-07-11T07:38:20.503Z,64.21
2017-07-11T07:39:16.759Z,63.93
2017-07-11T07:40:13.002Z,63.42
2017-07-11T07:41:09.246Z,63.38
2017-07-11T07:42:05.491Z,63.33
2017-07-11T07:43:01.743Z,63.48
2017-07-11T07:43:58.003Z,63.68
2017-07-11T07:44:54.250Z,63.71
2017-07-11T07:45:50.486Z,63.65
2017-07-11T07:46:46.719Z,63.82
2017-07-11T07:47:42.974Z,63.63
2017-07-11T07:48:39.322Z,63.24
2017-07-11T07:49:35.571Z,63.07
2017-07-11T07:50:31.810Z,63.06
2017-07-11T07:51:28.054Z,63.13
2017-07-11T07:52:24.322Z,63.32
2017-07-11T07:53:21.463Z,63.43
2017-07-11T07:54:17.736Z,63.50
2017-07-11T07:55:13.978Z,63.44
2017-07-11T07:56:10.223Z,63.69
2017-07-11T07:57:06.464Z,63.99
2017-07-11T07:58:02.710Z,64.22
2017-07-11T07:58:58.950Z,64.42
2017-07-11T07:59:55.211Z,64.65
2017-07-11T08:00:51.439Z,64.69
2017-07-11T08:01:47.683Z,64.97
2017-07-11T08:02:43.927Z,65.06
2017-07-11T08:03:40.179Z,65.06
2017-07-11T08:04:36.421Z,65.25
2017-07-11T08:05:32.675Z,65.20
2017-07-11T08:06:28.918Z,65.07
2017-07-11T08:07:25.161Z,65.08
2017-07-11T08:08:21.403Z,65.16
2017-07-11T08:09:17.648Z,65.29
2017-07-11T08:10:13.902Z,65.30
2017-07-11T08:11:10.139Z,65.39
2017-07-11T08:12:06.383Z,65.50
2017-07-11T08:13:02.623Z,65.68
2017-07-11T08:13:58.881Z,65.85
2017-07-11T08:14:55.124Z,65.99
2017-07-11T08:15:51.377Z,66.00
2017-07-11T08:16:47.623Z,65.94
2017-07-11T08:17:43.871Z,65.92
2017-07-11T08:18:40.127Z,65.87
2017-07-11T08:19:36.380Z,65.91
2017-07-11T08:20:32.635Z,65.88
2017-07-11T08:21:28.900Z,65.89
2017-07-11T08:22:25.142Z,66.00
2017-07-11T08:23:21.391Z,66.20
2017-07-11T08:24:17.630Z,66.37
2017-07-11T08:25:13.867Z,66.50
2017-07-11T08:26:10.115Z,66.25
2017-07-11T08:27:06.351Z,66.32
2017-07-11T08:28:02.590Z,66.33
2017-07-11T08:28:58.846Z,66.34
2017-07-11T08:29:55.082Z,66.29
2017-07-11T08:30:51.319Z,66.09
2017-07-11T08:31:47.586Z,65.93
2017-07-11T08:32:43.844Z,65.82
2017-07-11T08:33:40.083Z,65.83
2017-07-11T08:34:36.322Z,65.87
2017-07-11T08:35:32.559Z,66.01
2017-07-11T08:36:28.817Z,65.92
2017-07-11T08:37:25.075Z,65.96
2017-07-11T08:38:21.317Z,65.73
2017-07-11T08:39:17.560Z,65.63
2017-07-11T08:40:13.810Z,65.59
2017-07-11T08:41:10.059Z,65.54
2017-07-11T08:42:06.316Z,65.49
2017-07-11T08:43:02.558Z,65.40
2017-07-11T08:43:58.807Z,65.15
2017-07-11T08:44:55.067Z,65.25
2017-07-11T08:45:51.314Z,65.27
2017-07-11T08:46:47.571Z,65.32
2017-07-11T08:47:44.779Z,65.24
2017-07-11T08:48:41.022Z,65.15
2017-07-11T08:49:37.255Z,65.09
2017-07-11T08:50:33.486Z,65.27
2017-07-11T08:51:29.723Z,65.34
2017-07-11T08:52:25.987Z,65.22
2017-07-11T08:53:22.242Z,65.29
2017-07-11T08:54:18.503Z,65.17
2017-07-11T08:55:14.743Z,64.89
2017-07-11T08:56:10.982Z,64.71
2017-07-11T08:57:07.265Z,64.35
2017-07-11T08:58:03.516Z,64.35
2017-07-11T08:58:59.751Z,64.44
2017-07-11T08:59:56.007Z,64.40
2017-07-11T09:00:52.250Z,64.59
2017-07-11T09:01:48.579Z,64.60
2017-07-11T09:02:44.830Z,64.50
2017-07-11T09:03:41.076Z,64.39
2017-07-11T09:04:37.311Z,63.99
2017-07-11T09:05:33.555Z,64.03
2017-07-11T09:06:29.794Z,63.99
2017-07-11T09:07:26.063Z,63.84
2017-07-11T09:08:22.308Z,63.89
2017-07-11T09:09:18.551Z,64.01
2017-07-11T09:10:14.804Z,64.14
2017-07-11T09:11:11.054Z,64.10
2017-07-11T09:12:07.387Z,64.15
2017-07-11T09:13:03.651Z,64.16
2017-07-11T09:13:59.903Z,64.14
2017-07-11T09:14:56.166Z,64.10
2017-07-11T09:15:52.432Z,64.04
2017-07-11T09:16:48.686Z,63.87
2017-07-11T09:17:44.947Z,64.01
2017-07-11T09:18:41.191Z,63.86
2017-07-11T09:19:37.430Z,63.63
2017-07-11T09:20:33.687Z,63.55
2017-07-11T09:21:29.930Z,63.37
2017-07-11T09:22:26.264Z,63.11
2017-07-11T09:23:22.523Z,63.00
2017-07-11T09:24:18.759Z,62.72
2017-07-11T09:25:14.994Z,62.74
2017-07-11T09:26:11.235Z,62.67
2017-07-11T09:27:07.481Z,62.82
2017-07-11T09:28:03.750Z,62.91
2017-07-11T09:28:59.993Z,62.99
2017-07-11T09:29:56.235Z,62.94
2017-07-11T09:30:52.489Z,62.50
2017-07-11T09:31:48.740Z,62.37
2017-07-11T09:32:44.993Z,62.70
2017-07-11T09:33:41.246Z,62.84
2017-07-11T09:34:37.482Z,62.87
2017-07-11T09:35:33.722Z,62.56
2017-07-11T09:36:29.962Z,61.87
2017-07-11T09:37:26.203Z,61.74
2017-07-11T09:38:22.455Z,61.53
2017-07-11T09:39:18.692Z,61.14
2017-07-11T09:40:14.970Z,60.67
2017-07-11T09:41:11.214Z,60.35
2017-07-11T09:42:07.506Z,60.57
2017-07-11T09:43:03.768Z,60.51
2017-07-11T09:44:00.062Z,60.86
2017-07-11T09:44:56.303Z,60.84
2017-07-11T09:45:52.556Z,60.09
2017-07-11T09:46:48.801Z,60.13
2017-07-11T09:47:45.038Z,59.96
2017-07-11T09:48:41.283Z,60.30
2017-07-11T09:49:37.558Z,60.37
2017-07-11T09:50:33.874Z,60.10
2017-07-11T09:51:30.122Z,59.90
2017-07-11T09:52:26.377Z,59.66
2017-07-11T09:53:22.620Z,59.57
2017-07-11T09:54:18.866Z,59.73
2017-07-11T09:55:15.125Z,59.69
2017-07-11T09:56:11.371Z,59.46
2017-07-11T09:57:07.627Z,59.26
2017-07-11T09:58:03.863Z,58.85
2017-07-11T09:59:00.110Z,59.00
2017-07-11T09:59:56.375Z,58.71
2017-07-11T10:00:52.656Z,58.62
2017-07-11T10:01:48.919Z,58.77
2017-07-11T10:02:45.159Z,58.91
2017-07-11T10:03:41.399Z,58.82
2017-07-11T10:04:37.639Z,58.57
2017-07-11T10:05:33.910Z,58.78
2017-07-11T10:06:30.152Z,58.62
2017-07-11T10:07:26.385Z,57.67
2017-07-11T10:08:22.647Z,57.68
2017-07-11T10:09:18.907Z,57.38
2017-07-11T10:10:15.166Z,57.25
2017-07-11T10:11:11.423Z,56.92
2017-07-11T10:12:07.676Z,56.61
2017-07-11T10:13:03.943Z,56.29
2017-07-11T10:14:00.204Z,56.29
2017-07-11T10:14:56.451Z,56.32
2017-07-11T10:15:52.704Z,56.60
2017-07-11T10:16:48.963Z,56.80
2017-07-11T10:17:45.206Z,57.14
2017-07-11T10:18:41.634Z,57.31
2017-07-11T10:19:37.879Z,57.36
2017-07-11T10:20:34.118Z,57.34
2017-07-11T10:21:30.383Z,57.27
2017-07-11T10:22:26.655Z,56.99
2017-07-11T10:23:22.902Z,56.85
2017-07-11T10:24:19.153Z,56.98
2017-07-11T10:25:15.387Z,56.84
2017-07-11T10:26:11.649Z,56.32
2017-07-11T10:27:07.927Z,56.26
2017-07-11T10:28:04.184Z,56.43
2017-07-11T10:29:00.414Z,56.54
2017-07-11T10:29:56.662Z,56.93
2017-07-11T10:30:52.905Z,56.87
2017-07-11T10:31:49.156Z,56.71
2017-07-11T10:32:45.423Z,56.55
2017-07-11T10:33:41.670Z,56.44
2017-07-11T10:34:37.921Z,56.40
2017-07-11T10:35:34.170Z,56.11
2017-07-11T10:36:30.422Z,55.79
2017-07-11T10:37:26.667Z,56.01
2017-07-11T10:38:22.927Z,55.72
2017-07-11T10:39:19.183Z,55.46
2017-07-11T10:40:15.422Z,55.66
2017-07-11T10:41:11.666Z,55.95
2017-07-11T10:42:07.918Z,56.50
2017-07-11T10:43:04.181Z,56.81
2017-07-11T10:44:00.426Z,56.62
2017-07-11T10:44:56.670Z,56.75
2017-07-11T10:45:52.915Z,56.90
2017-07-11T10:46:49.166Z,56.48
2017-07-11T10:47:45.423Z,56.20
2017-07-11T10:48:41.678Z,56.17
2017-07-11T10:49:37.911Z,56.46
2017-07-11T10:50:34.160Z,56.52
2017-07-11T10:51:30.402Z,56.27
2017-07-11T10:52:26.650Z,56.13
2017-07-11T10:53:22.906Z,55.61
2017-07-11T10:54:19.155Z,55.42
2017-07-11T10:55:15.399Z,55.28
2017-07-11T10:56:11.634Z,55.19
2017-07-11T10:57:07.883Z,55.07
2017-07-11T10:58:04.130Z,54.96
2017-07-11T10:59:00.390Z,55.35
2017-07-11T10:59:56.635Z,55.44
2017-07-11T11:00:52.891Z,55.55
2017-07-11T11:01:49.150Z,55.61
2017-07-11T11:02:45.415Z,55.48
2017-07-11T11:03:41.667Z,54.83
2017-07-11T11:04:37.914Z,54.69
2017-07-11T11:05:34.162Z,54.87
2017-07-11T11:06:30.406Z,54.77
2017-07-11T11:07:26.644Z,54.03
2017-07-11T11:08:22.900Z,54.21
2017-07-11T11:09:19.155Z,54.19
2017-07-11T11:10:15.418Z,54.33
2017-07-11T11:11:11.671Z,54.86
2017-07-11T11:12:07.923Z,54.90
2017-07-11T11:13:04.563Z,54.54
2017-07-11T11:14:00.810Z,54.30
2017-07-11T11:14:57.076Z,54.10
2017-07-11T11:15:53.322Z,54.13
2017-07-11T11:16:49.572Z,54.45
2017-07-11T11:17:45.815Z,54.29
2017-07-11T11:18:42.054Z,54.12
2017-07-11T11:19:38.313Z,53.53
2017-07-11T11:20:34.556Z,53.36
2017-07-11T11:21:30.802Z,53.31
2017-07-11T11:22:27.046Z,53.46
2017-07-11T11:23:23.295Z,53.41
2017-07-11T11:24:19.555Z,53.79
2017-07-11T11:25:15.817Z,54.14
2017-07-11T11:26:12.075Z,53.84
2017-07-11T11:27:08.323Z,53.75
2017-07-11T11:28:04.574Z,53.81
2017-07-11T11:29:00.828Z,53.75
2017-07-11T11:29:57.090Z,53.85
2017-07-11T11:30:53.335Z,53.75
2017-07-11T11:31:49.587Z,53.38
2017-07-11T11:32:45.829Z,53.12
2017-07-11T11:33:42.091Z,52.74
2017-07-11T11:34:38.343Z,52.50
2017-07-11T11:35:34.595Z,52.66
2017-07-11T11:36:30.927Z,52.88
2017-07-11T11:37:27.184Z,52.68
2017-07-11T11:38:23.438Z,52.70
2017-07-11T11:39:19.683Z,52.40
2017-07-11T11:40:15.943Z,52.19
2017-07-11T11:41:12.193Z,52.01
2017-07-11T11:42:08.439Z,52.07
2017-07-11T11:43:04.695Z,52.31
2017-07-11T11:44:00.950Z,52.55
2017-07-11T11:44:57.223Z,52.48
2017-07-11T11:45:53.491Z,52.71
2017-07-11T11:46:49.746Z,52.51
2017-07-11T11:47:45.992Z,52.63
2017-07-11T11:48:42.243Z,52.50
2017-07-11T11:49:38.508Z,52.46
2017-07-11T11:50:34.771Z,52.35
2017-07-11T11:51:31.027Z,52.15
2017-07-11T11:52:27.272Z,51.71
2017-07-11T11:53:23.531Z,51.09
2017-07-11T11:54:19.778Z,51.13
2017-07-11T11:55:16.024Z,51.41
2017-07-11T11:56:12.292Z,50.99
2017-07-11T11:57:08.540Z,51.02
2017-07-11T11:58:04.786Z,50.85
2017-07-11T11:59:01.026Z,50.50
2017-07-11T11:59:57.266Z,50.25
2017-07-11T12:00:53.535Z,50.52
2017-07-11T12:01:49.787Z,50.37
2017-07-11T12:02:46.051Z,50.25
2017-07-11T12:03:42.298Z,50.36
2017-07-11T12:04:38.553Z,50.19